Map

Track Data

SID SEASON NUMBER BASIN SUBBASIN NAME ISO_TIME NATURE LAT LON WMO_WIND WMO_PRES WMO_AGENCY TRACK_TYPE DIST2LAND LANDFALL IFLAG USA_AGENCY USA_ATCF_ID USA_LAT USA_LON USA_RECORD USA_STATUS USA_WIND USA_PRES USA_SSHS USA_R34_NE USA_R34_SE USA_R34_SW USA_R34_NW USA_R50_NE USA_R50_SE USA_R50_SW USA_R50_NW USA_R64_NE USA_R64_SE USA_R64_SW USA_R64_NW USA_POCI USA_ROCI USA_RMW USA_EYE TOKYO_LAT TOKYO_LON TOKYO_GRADE TOKYO_WIND TOKYO_PRES TOKYO_R50_DIR TOKYO_R50_LONG TOKYO_R50_SHORT TOKYO_R30_DIR TOKYO_R30_LONG TOKYO_R30_SHORT TOKYO_LAND CMA_LAT CMA_LON CMA_CAT CMA_WIND CMA_PRES HKO_LAT HKO_LON HKO_CAT HKO_WIND HKO_PRES NEWDELHI_LAT NEWDELHI_LON NEWDELHI_GRADE NEWDELHI_WIND NEWDELHI_PRES NEWDELHI_CI NEWDELHI_DP NEWDELHI_POCI REUNION_LAT REUNION_LON REUNION_TYPE REUNION_WIND REUNION_PRES REUNION_TNUM REUNION_CI REUNION_RMW REUNION_R34_NE REUNION_R34_SE REUNION_R34_SW REUNION_R34_NW REUNION_R50_NE REUNION_R50_SE REUNION_R50_SW REUNION_R50_NW REUNION_R64_NE REUNION_R64_SE REUNION_R64_SW REUNION_R64_NW BOM_LAT BOM_LON BOM_TYPE BOM_WIND BOM_PRES BOM_TNUM BOM_CI BOM_RMW BOM_R34_NE BOM_R34_SE BOM_R34_SW BOM_R34_NW BOM_R50_NE BOM_R50_SE BOM_R50_SW BOM_R50_NW BOM_R64_NE BOM_R64_SE BOM_R64_SW BOM_R64_NW BOM_ROCI BOM_POCI BOM_EYE BOM_POS_METHOD BOM_PRES_METHOD NADI_LAT NADI_LON NADI_CAT NADI_WIND NADI_PRES WELLINGTON_LAT WELLINGTON_LON WELLINGTON_WIND WELLINGTON_PRES DS824_LAT DS824_LON DS824_STAGE DS824_WIND DS824_PRES TD9636_LAT TD9636_LON TD9636_STAGE TD9636_WIND TD9636_PRES TD9635_LAT TD9635_LON TD9635_WIND TD9635_PRES TD9635_ROCI NEUMANN_LAT NEUMANN_LON NEUMANN_CLASS NEUMANN_WIND NEUMANN_PRES MLC_LAT MLC_LON MLC_CLASS MLC_WIND MLC_PRES USA_GUST BOM_GUST BOM_GUST_PER REUNION_GUST REUNION_GUST_PER USA_SEAHGT USA_SEARAD_NE USA_SEARAD_SE USA_SEARAD_SW USA_SEARAD_NW STORM_SPEED STORM_DIR
1996134N11246 1996 37 EP MM NOT_NAMED 1996-05-13 06:00:00 TS 11.1000 -113.900 25 1009 hurdat_epa main 1331 1331 O_____________ hurdat_epa EP011996 11.1000 -113.900 TD 25 1009 -1 13 278
1996134N11246 1996 37 EP MM NOT_NAMED 1996-05-13 09:00:00 TS 11.1879 -114.572 main 1377 1377 P_____________ EP011996 11.1879 -114.572 TD 27 1008 -1 13 279
1996134N11246 1996 37 EP MM NOT_NAMED 1996-05-13 12:00:00 TS 11.3000 -115.200 30 1008 hurdat_epa main 1410 1408 O_____________ hurdat_epa EP011996 11.3000 -115.200 TD 30 1008 -1 12 283
1996134N11246 1996 37 EP MM NOT_NAMED 1996-05-13 15:00:00 TS 11.4498 -115.757 main 1426 1416 P_____________ EP011996 11.4498 -115.757 TD 30 1007 -1 11 286
1996134N11246 1996 37 EP MM NOT_NAMED 1996-05-13 18:00:00 TS 11.6000 -116.300 30 1006 hurdat_epa main 1429 1429 O_____________ hurdat_epa EP011996 11.6000 -116.300 TD 30 1006 -1 11 283
1996134N11246 1996 37 EP MM NOT_NAMED 1996-05-13 21:00:00 TS 11.6999 -116.885 main 1450 1450 P_____________ EP011996 11.6999 -116.885 TD 35 1004 0 12 280
1996134N11246 1996 37 EP MM NOT_NAMED 1996-05-14 00:00:00 TS 11.8000 -117.500 40 1003 hurdat_epa main 1474 1474 O_____________ hurdat_epa EP011996 11.8000 -117.500 TS 40 1003 0 13 281
1996134N11246 1996 37 EP MM NOT_NAMED 1996-05-14 03:00:00 TS 11.9425 -118.157 main 1506 1497 P_____________ EP011996 11.9425 -118.157 TS 42 1001 0 13 283
1996134N11246 1996 37 EP MM NOT_NAMED 1996-05-14 06:00:00 TS 12.1000 -118.800 45 1000 hurdat_epa main 1525 1525 O_____________ hurdat_epa EP011996 12.1000 -118.800 TS 45 1000 0 12 284
1996134N11246 1996 37 EP MM NOT_NAMED 1996-05-14 09:00:00 TS 12.2423 -119.365 main 1556 1547 P_____________ EP011996 12.2423 -119.365 TS 42 1001 0 11 286
1996134N11246 1996 37 EP MM NOT_NAMED 1996-05-14 12:00:00 TS 12.4000 -119.900 40 1002 hurdat_epa main 1573 1573 O_____________ hurdat_epa EP011996 12.4000 -119.900 TS 40 1002 0 11 289
1996134N11246 1996 37 EP MM NOT_NAMED 1996-05-14 15:00:00 TS 12.6075 -120.472 main 1600 1599 P_____________ EP011996 12.6075 -120.472 TS 37 1003 0 11 290
1996134N11246 1996 37 EP MM NOT_NAMED 1996-05-14 18:00:00 TS 12.8000 -121.000 35 1005 hurdat_epa main 1621 1621 O_____________ hurdat_epa EP011996 12.8000 -121.000 TS 35 1005 0 10 288
1996134N11246 1996 37 EP MM NOT_NAMED 1996-05-14 21:00:00 TS 12.9148 -121.423 main 1641 1641 P_____________ EP011996 12.9148 -121.423 TS 32 1005 -1 8 284
1996134N11246 1996 37 EP MM NOT_NAMED 1996-05-15 00:00:00 TS 13.0000 -121.800 30 1006 hurdat_epa main 1658 1658 O_____________ hurdat_epa EP011996 13.0000 -121.800 TD 30 1006 -1 8 284
1996134N11246 1996 37 EP MM NOT_NAMED 1996-05-15 03:00:00 TS 13.0999 -122.200 main 1675 1675 P_____________ EP011996 13.0999 -122.200 TD 30 1006 -1 8 284
1996134N11246 1996 37 EP MM NOT_NAMED 1996-05-15 06:00:00 TS 13.2000 -122.600 30 1007 hurdat_epa main 1693 1693 O_____________ hurdat_epa EP011996 13.2000 -122.600 TD 30 1007 -1 8 284
1996134N11246 1996 37 EP MM NOT_NAMED 1996-05-15 09:00:00 TS 13.2999 -123.000 main 1712 1712 P_____________ EP011996 13.2999 -123.000 TD 30 1007 -1 8 284
1996134N11246 1996 37 EP MM NOT_NAMED 1996-05-15 12:00:00 TS 13.4000 -123.400 30 1007 hurdat_epa main 1732 1732 O_____________ hurdat_epa EP011996 13.4000 -123.400 TD 30 1007 -1 8 284
1996134N11246 1996 37 EP MM NOT_NAMED 1996-05-15 15:00:00 TS 13.5000 -123.808 main 1753 1753 P_____________ EP011996 13.5000 -123.808 TD 30 1007 -1 8 284
1996134N11246 1996 37 EP MM NOT_NAMED 1996-05-15 18:00:00 TS 13.6000 -124.200 30 1008 hurdat_epa main 1774 1774 O_____________ hurdat_epa EP011996 13.6000 -124.200 TD 30 1008 -1 8 285
1996134N11246 1996 37 EP MM NOT_NAMED 1996-05-15 21:00:00 TS 13.6999 -124.550 main 1796 1796 P_____________ EP011996 13.6999 -124.550 TD 30 1008 -1 7 286
1996134N11246 1996 37 EP MM NOT_NAMED 1996-05-16 00:00:00 TS 13.8000 -124.900 30 1008 hurdat_epa main 1811 1811 O_____________ hurdat_epa EP011996 13.8000 -124.900 TD 30 1008 -1 8 286
1996134N11246 1996 37 EP MM NOT_NAMED 1996-05-16 03:00:00 TS 13.9075 -125.307 main 1834 1834 P_____________ EP011996 13.9075 -125.307 TD 27 1008 -1 8 284
1996134N11246 1996 37 EP MM NOT_NAMED 1996-05-16 06:00:00 TS 14.0000 -125.700 25 1008 hurdat_epa main 1858 1858 O_____________ hurdat_epa EP011996 14.0000 -125.700 TD 25 1008 -1 7 282
1996134N11246 1996 37 EP MM NOT_NAMED 1996-05-16 09:00:00 TS 14.0574 -126.030 main 1875 1875 P_____________ EP011996 14.0574 -126.030 TD 25 1008 -1 6 280
1996134N11246 1996 37 EP MM NOT_NAMED 1996-05-16 12:00:00 TS 14.1000 -126.300 25 1009 hurdat_epa main 1899 1899 O_____________ hurdat_epa EP011996 14.1000 -126.300 TD 25 1009 -1 5 281
1996134N11246 1996 37 EP MM NOT_NAMED 1996-05-16 15:00:00 TS 14.1475 -126.515 main 1915 1908 P_____________ EP011996 14.1475 -126.515 TD 25 1009 -1 4 284
1996134N11246 1996 37 EP MM NOT_NAMED 1996-05-16 18:00:00 TS 14.2000 -126.700 25 1009 hurdat_epa main 1924 O_____________ hurdat_epa EP011996 14.2000 -126.700 TD 25 1009 -1 4 286

About IBTrACS Database

This database is a web-friendly format of International Best Track Archive for Climate Stewardship (IBTrACS), a global best track data archive curated by NOAA dating back to 1842.

Updated: 2021-10-21